sensor_id;sensor_type;location;lat;lon;timestamp;temperature;humidity
56869;DHT22;42754;0.000;0.000;2023-02-28T00:00:17;1.40;99.90
56869;DHT22;42754;0.000;0.000;2023-02-28T00:02:44;1.40;99.90
56869;DHT22;42754;0.000;0.000;2023-02-28T00:05:11;1.40;99.90
56869;DHT22;42754;0.000;0.000;2023-02-28T00:07:37;1.50;99.90
56869;DHT22;42754;0.000;0.000;2023-02-28T00:10:03;1.50;99.90
56869;DHT22;42754;0.000;0.000;2023-02-28T00:12:29;1.50;99.90
56869;DHT22;42754;0.000;0.000;2023-02-28T00:14:55;1.50;99.90
56869;DHT22;42754;0.000;0.000;2023-02-28T00:17:20;1.50;99.90
56869;DHT22;42754;0.000;0.000;2023-02-28T00:19:49;1.50;99.90
56869;DHT22;42754;0.000;0.000;2023-02-28T00:22:16;1.50;99.90
56869;DHT22;42754;0.000;0.000;2023-02-28T00:24:42;1.50;99.90
56869;DHT22;42754;0.000;0.000;2023-02-28T00:27:07;1.50;99.90
56869;DHT22;42754;0.000;0.000;2023-02-28T00:29:33;1.50;99.90
56869;DHT22;42754;0.000;0.000;2023-02-28T00:31:58;1.50;99.90
56869;DHT22;42754;0.000;0.000;2023-02-28T00:34:24;1.60;99.90
56869;DHT22;42754;0.000;0.000;2023-02-28T00:36:49;1.60;99.90
56869;DHT22;42754;0.000;0.000;2023-02-28T00:39:16;1.70;99.90
56869;DHT22;42754;0.000;0.000;2023-02-28T00:41:41;1.70;99.90
56869;DHT22;42754;0.000;0.000;2023-02-28T00:44:07;1.70;99.90
56869;DHT22;42754;0.000;0.000;2023-02-28T00:46:32;1.70;99.90
56869;DHT22;42754;0.000;0.000;2023-02-28T00:48:58;1.70;99.90
56869;DHT22;42754;0.000;0.000;2023-02-28T00:51:23;1.80;99.90
56869;DHT22;42754;0.000;0.000;2023-02-28T00:53:49;1.80;99.90
56869;DHT22;42754;0.000;0.000;2023-02-28T00:56:15;1.70;99.90
56869;DHT22;42754;0.000;0.000;2023-02-28T00:58:40;1.80;99.90
56869;DHT22;42754;0.000;0.000;2023-02-28T01:01:06;1.80;99.90
56869;DHT22;42754;0.000;0.000;2023-02-28T01:03:32;1.80;99.90
56869;DHT22;42754;0.000;0.000;2023-02-28T01:05:57;1.80;99.90
56869;DHT22;42754;0.000;0.000;2023-02-28T01:08:23;1.80;99.90
56869;DHT22;42754;0.000;0.000;2023-02-28T01:10:48;1.80;99.90
56869;DHT22;42754;0.000;0.000;2023-02-28T01:13:15;1.70;99.90
56869;DHT22;42754;0.000;0.000;2023-02-28T01:15:43;1.70;99.90
56869;DHT22;42754;0.000;0.000;2023-02-28T01:18:10;1.70;99.90
56869;DHT22;42754;0.000;0.000;2023-02-28T01:20:37;1.70;99.90
56869;DHT22;42754;0.000;0.000;2023-02-28T01:23:02;1.80;99.90
56869;DHT22;42754;0.000;0.000;2023-02-28T01:25:28;1.70;99.90
56869;DHT22;42754;0.000;0.000;2023-02-28T01:27:53;1.70;99.90
56869;DHT22;42754;0.000;0.000;2023-02-28T01:30:19;1.80;99.90
56869;DHT22;42754;0.000;0.000;2023-02-28T01:32:44;1.70;99.90
56869;DHT22;42754;0.000;0.000;2023-02-28T01:35:10;1.80;99.90
56869;DHT22;42754;0.000;0.000;2023-02-28T01:37:36;1.80;99.90
56869;DHT22;42754;0.000;0.000;2023-02-28T01:40:03;1.80;99.90
56869;DHT22;42754;0.000;0.000;2023-02-28T01:42:28;1.80;99.90
56869;DHT22;42754;0.000;0.000;2023-02-28T01:44:55;1.80;99.90
56869;DHT22;42754;0.000;0.000;2023-02-28T01:47:22;1.80;99.90
56869;DHT22;42754;0.000;0.000;2023-02-28T01:49:50;1.90;99.90
56869;DHT22;42754;0.000;0.000;2023-02-28T01:52:16;1.90;99.90
56869;DHT22;42754;0.000;0.000;2023-02-28T01:54:45;1.90;99.90
56869;DHT22;42754;0.000;0.000;2023-02-28T01:57:12;1.80;99.90
56869;DHT22;42754;0.000;0.000;2023-02-28T01:59:50;1.90;99.90
56869;DHT22;42754;0.000;0.000;2023-02-28T02:02:18;1.90;99.90
56869;DHT22;42754;0.000;0.000;2023-02-28T02:04:58;1.90;99.90
56869;DHT22;42754;0.000;0.000;2023-02-28T02:07:26;2.00;99.90
56869;DHT22;42754;0.000;0.000;2023-02-28T02:10:03;2.00;99.90
56869;DHT22;42754;0.000;0.000;2023-02-28T02:15:19;2.00;99.90
56869;DHT22;42754;0.000;0.000;2023-02-28T02:17:49;2.00;99.90
56869;DHT22;42754;0.000;0.000;2023-02-28T02:20:27;2.00;99.90
56869;DHT22;42754;0.000;0.000;2023-02-28T02:25:25;2.00;99.90
56869;DHT22;42754;0.000;0.000;2023-02-28T02:30:27;2.00;99.90
56869;DHT22;42754;0.000;0.000;2023-02-28T02:35:43;2.00;99.90
56869;DHT22;42754;0.000;0.000;2023-02-28T02:41:28;2.10;99.90
56869;DHT22;42754;0.000;0.000;2023-02-28T02:44:18;2.10;99.90
56869;DHT22;42754;0.000;0.000;2023-02-28T02:46:25;2.10;99.90
56869;DHT22;42754;0.000;0.000;2023-02-28T02:48:51;2.10;99.90
56869;DHT22;42754;0.000;0.000;2023-02-28T02:51:20;2.10;99.90
56869;DHT22;42754;0.000;0.000;2023-02-28T02:53:48;2.10;99.90
56869;DHT22;42754;0.000;0.000;2023-02-28T02:56:15;2.10;99.90
56869;DHT22;42754;0.000;0.000;2023-02-28T02:58:42;2.10;99.90
56869;DHT22;42754;0.000;0.000;2023-02-28T03:01:12;2.00;99.90
56869;DHT22;42754;0.000;0.000;2023-02-28T03:03:40;2.00;99.90
56869;DHT22;42754;0.000;0.000;2023-02-28T03:06:05;2.10;99.90
56869;DHT22;42754;0.000;0.000;2023-02-28T03:08:35;2.00;99.90
56869;DHT22;42754;0.000;0.000;2023-02-28T03:11:02;2.00;99.90
56869;DHT22;42754;0.000;0.000;2023-02-28T03:24:06;2.00;99.90
56869;DHT22;42754;0.000;0.000;2023-02-28T03:26:34;2.00;99.90
56869;DHT22;42754;0.000;0.000;2023-02-28T03:31:28;2.00;99.90
56869;DHT22;42754;0.000;0.000;2023-02-28T03:33:58;2.00;99.90
56869;DHT22;42754;0.000;0.000;2023-02-28T03:36:26;2.00;99.90
56869;DHT22;42754;0.000;0.000;2023-02-28T03:39:00;1.90;99.90
56869;DHT22;42754;0.000;0.000;2023-02-28T03:41:32;2.00;99.90
56869;DHT22;42754;0.000;0.000;2023-02-28T03:44:05;2.00;99.90
56869;DHT22;42754;0.000;0.000;2023-02-28T03:46:33;1.90;99.90
56869;DHT22;42754;0.000;0.000;2023-02-28T03:49:20;1.90;99.90
56869;DHT22;42754;0.000;0.000;2023-02-28T03:51:48;1.90;99.90
56869;DHT22;42754;0.000;0.000;2023-02-28T03:54:16;1.90;99.90
56869;DHT22;42754;0.000;0.000;2023-02-28T03:57:06;1.90;99.90
56869;DHT22;42754;0.000;0.000;2023-02-28T03:59:53;1.90;99.90
56869;DHT22;42754;0.000;0.000;2023-02-28T04:02:15;1.90;99.90
56869;DHT22;42754;0.000;0.000;2023-02-28T04:04:41;1.90;99.90
56869;DHT22;42754;0.000;0.000;2023-02-28T04:07:10;1.90;99.90
56869;DHT22;42754;0.000;0.000;2023-02-28T04:09:36;1.90;99.90
56869;DHT22;42754;0.000;0.000;2023-02-28T04:12:02;1.90;99.90
56869;DHT22;42754;0.000;0.000;2023-02-28T04:14:29;1.90;99.90
56869;DHT22;42754;0.000;0.000;2023-02-28T04:16:54;1.90;99.90
56869;DHT22;42754;0.000;0.000;2023-02-28T04:19:21;1.90;99.90
56869;DHT22;42754;0.000;0.000;2023-02-28T04:21:48;1.90;99.90
56869;DHT22;42754;0.000;0.000;2023-02-28T04:24:16;1.90;99.90
56869;DHT22;42754;0.000;0.000;2023-02-28T04:26:43;1.90;99.90
56869;DHT22;42754;0.000;0.000;2023-02-28T04:29:09;1.90;99.90
56869;DHT22;42754;0.000;0.000;2023-02-28T04:31:35;1.80;99.90
56869;DHT22;42754;0.000;0.000;2023-02-28T04:34:01;1.90;99.90
56869;DHT22;42754;0.000;0.000;2023-02-28T04:36:26;1.90;99.90
56869;DHT22;42754;0.000;0.000;2023-02-28T04:38:52;1.80;99.90
56869;DHT22;42754;0.000;0.000;2023-02-28T04:41:18;1.80;99.90
56869;DHT22;42754;0.000;0.000;2023-02-28T04:43:43;1.90;99.90
56869;DHT22;42754;0.000;0.000;2023-02-28T04:46:09;1.90;99.90
56869;DHT22;42754;0.000;0.000;2023-02-28T04:48:37;1.90;99.90
56869;DHT22;42754;0.000;0.000;2023-02-28T04:51:03;1.90;99.90
56869;DHT22;42754;0.000;0.000;2023-02-28T04:53:29;1.80;99.90
56869;DHT22;42754;0.000;0.000;2023-02-28T04:55:58;1.80;99.90
56869;DHT22;42754;0.000;0.000;2023-02-28T04:58:25;1.90;99.90
56869;DHT22;42754;0.000;0.000;2023-02-28T05:00:51;1.80;99.90
56869;DHT22;42754;0.000;0.000;2023-02-28T05:03:16;1.90;99.90
56869;DHT22;42754;0.000;0.000;2023-02-28T05:05:42;1.90;99.90
56869;DHT22;42754;0.000;0.000;2023-02-28T05:08:08;1.80;99.90
56869;DHT22;42754;0.000;0.000;2023-02-28T05:10:35;1.80;99.90
56869;DHT22;42754;0.000;0.000;2023-02-28T05:13:00;1.80;99.90
56869;DHT22;42754;0.000;0.000;2023-02-28T05:15:26;1.90;99.90
56869;DHT22;42754;0.000;0.000;2023-02-28T05:17:51;1.90;99.90
56869;DHT22;42754;0.000;0.000;2023-02-28T05:20:17;1.80;99.90
56869;DHT22;42754;0.000;0.000;2023-02-28T05:22:43;1.80;99.90
56869;DHT22;42754;0.000;0.000;2023-02-28T05:25:10;1.80;99.90
56869;DHT22;42754;0.000;0.000;2023-02-28T05:27:37;1.90;99.90
56869;DHT22;42754;0.000;0.000;2023-02-28T05:30:03;1.80;99.90
56869;DHT22;42754;0.000;0.000;2023-02-28T05:32:29;1.80;99.90
56869;DHT22;42754;0.000;0.000;2023-02-28T05:34:55;1.80;99.90
56869;DHT22;42754;0.000;0.000;2023-02-28T05:37:20;1.80;99.90
56869;DHT22;42754;0.000;0.000;2023-02-28T05:39:46;1.90;99.90
56869;DHT22;42754;0.000;0.000;2023-02-28T05:42:11;1.90;99.90
56869;DHT22;42754;0.000;0.000;2023-02-28T05:44:37;1.90;99.90
56869;DHT22;42754;0.000;0.000;2023-02-28T05:47:03;1.90;99.90
56869;DHT22;42754;0.000;0.000;2023-02-28T05:49:28;1.90;99.90
56869;DHT22;42754;0.000;0.000;2023-02-28T05:51:54;1.90;99.90
56869;DHT22;42754;0.000;0.000;2023-02-28T05:54:20;1.90;99.90
56869;DHT22;42754;0.000;0.000;2023-02-28T05:56:45;1.90;99.90
56869;DHT22;42754;0.000;0.000;2023-02-28T05:59:11;1.90;99.90
56869;DHT22;42754;0.000;0.000;2023-02-28T06:01:38;1.90;99.90
56869;DHT22;42754;0.000;0.000;2023-02-28T06:04:05;1.90;99.90
56869;DHT22;42754;0.000;0.000;2023-02-28T06:06:31;1.90;99.90
56869;DHT22;42754;0.000;0.000;2023-02-28T06:08:57;1.90;99.90
56869;DHT22;42754;0.000;0.000;2023-02-28T06:11:22;1.90;99.90
56869;DHT22;42754;0.000;0.000;2023-02-28T06:13:58;1.80;99.90
56869;DHT22;42754;0.000;0.000;2023-02-28T06:16:25;1.80;99.90
56869;DHT22;42754;0.000;0.000;2023-02-28T06:18:51;1.90;99.90
56869;DHT22;42754;0.000;0.000;2023-02-28T06:21:18;1.90;99.90
56869;DHT22;42754;0.000;0.000;2023-02-28T06:23:43;1.90;99.90
56869;DHT22;42754;0.000;0.000;2023-02-28T06:26:10;1.90;99.90
56869;DHT22;42754;0.000;0.000;2023-02-28T06:28:35;1.90;99.90
56869;DHT22;42754;0.000;0.000;2023-02-28T06:31:11;2.00;99.90
56869;DHT22;42754;0.000;0.000;2023-02-28T06:33:37;2.00;99.90
56869;DHT22;42754;0.000;0.000;2023-02-28T06:36:03;2.00;99.90
56869;DHT22;42754;0.000;0.000;2023-02-28T06:38:29;2.00;99.90
56869;DHT22;42754;0.000;0.000;2023-02-28T06:40:55;2.00;99.90
56869;DHT22;42754;0.000;0.000;2023-02-28T06:43:21;2.00;99.90
56869;DHT22;42754;0.000;0.000;2023-02-28T06:45:47;2.00;99.90
56869;DHT22;42754;0.000;0.000;2023-02-28T06:48:13;2.00;99.90
56869;DHT22;42754;0.000;0.000;2023-02-28T06:50:38;2.10;99.90
56869;DHT22;42754;0.000;0.000;2023-02-28T06:53:04;2.10;99.90
56869;DHT22;42754;0.000;0.000;2023-02-28T06:55:30;2.10;99.90
56869;DHT22;42754;0.000;0.000;2023-02-28T06:57:55;2.10;99.90
56869;DHT22;42754;0.000;0.000;2023-02-28T07:00:21;2.10;99.90
56869;DHT22;42754;0.000;0.000;2023-02-28T07:02:46;2.10;99.90
56869;DHT22;42754;0.000;0.000;2023-02-28T07:05:12;2.10;99.90
56869;DHT22;42754;0.000;0.000;2023-02-28T07:07:38;2.10;99.90
56869;DHT22;42754;0.000;0.000;2023-02-28T07:10:09;2.00;99.90
56869;DHT22;42754;0.000;0.000;2023-02-28T07:12:36;2.00;99.90
56869;DHT22;42754;0.000;0.000;2023-02-28T07:15:02;2.00;99.90
56869;DHT22;42754;0.000;0.000;2023-02-28T07:17:28;2.10;99.90
56869;DHT22;42754;0.000;0.000;2023-02-28T07:19:54;2.10;99.90
56869;DHT22;42754;0.000;0.000;2023-02-28T07:22:19;2.20;99.90
56869;DHT22;42754;0.000;0.000;2023-02-28T07:24:45;2.30;99.90
56869;DHT22;42754;0.000;0.000;2023-02-28T07:27:11;2.30;99.90
56869;DHT22;42754;0.000;0.000;2023-02-28T07:29:36;2.40;99.90
56869;DHT22;42754;0.000;0.000;2023-02-28T07:32:03;2.60;99.90
56869;DHT22;42754;0.000;0.000;2023-02-28T07:34:29;2.70;99.90
56869;DHT22;42754;0.000;0.000;2023-02-28T07:36:54;2.90;99.90
56869;DHT22;42754;0.000;0.000;2023-02-28T07:39:21;2.90;99.90
56869;DHT22;42754;0.000;0.000;2023-02-28T07:41:46;2.90;99.90
56869;DHT22;42754;0.000;0.000;2023-02-28T07:44:12;3.00;99.90
56869;DHT22;42754;0.000;0.000;2023-02-28T07:46:38;3.10;99.90
56869;DHT22;42754;0.000;0.000;2023-02-28T07:49:03;3.20;99.90
56869;DHT22;42754;0.000;0.000;2023-02-28T07:51:29;3.30;99.90
56869;DHT22;42754;0.000;0.000;2023-02-28T07:53:55;3.40;99.90
56869;DHT22;42754;0.000;0.000;2023-02-28T07:56:21;3.90;99.90
56869;DHT22;42754;0.000;0.000;2023-02-28T07:58:46;4.40;99.90
56869;DHT22;42754;0.000;0.000;2023-02-28T08:01:12;4.60;99.90
56869;DHT22;42754;0.000;0.000;2023-02-28T08:03:38;5.00;99.90
56869;DHT22;42754;0.000;0.000;2023-02-28T08:06:04;5.30;99.90
56869;DHT22;42754;0.000;0.000;2023-02-28T08:08:30;5.60;99.90
56869;DHT22;42754;0.000;0.000;2023-02-28T08:11:02;5.60;99.90
56869;DHT22;42754;0.000;0.000;2023-02-28T08:13:28;5.70;99.90
56869;DHT22;42754;0.000;0.000;2023-02-28T08:15:54;5.90;99.90
56869;DHT22;42754;0.000;0.000;2023-02-28T08:18:21;6.40;99.90
56869;DHT22;42754;0.000;0.000;2023-02-28T08:20:46;6.70;99.10
56869;DHT22;42754;0.000;0.000;2023-02-28T08:23:12;6.90;98.50
56869;DHT22;42754;0.000;0.000;2023-02-28T08:25:38;6.90;96.40
56869;DHT22;42754;0.000;0.000;2023-02-28T08:28:04;6.90;96.10
56869;DHT22;42754;0.000;0.000;2023-02-28T08:30:29;7.10;96.10
56869;DHT22;42754;0.000;0.000;2023-02-28T08:32:55;6.90;94.60
56869;DHT22;42754;0.000;0.000;2023-02-28T08:35:20;7.00;94.50
56869;DHT22;42754;0.000;0.000;2023-02-28T08:37:49;7.50;94.80
56869;DHT22;42754;0.000;0.000;2023-02-28T08:40:15;7.90;93.50
56869;DHT22;42754;0.000;0.000;2023-02-28T08:42:44;7.90;94.30
56869;DHT22;42754;0.000;0.000;2023-02-28T08:45:10;8.20;94.60
56869;DHT22;42754;0.000;0.000;2023-02-28T08:47:37;8.40;92.80
56869;DHT22;42754;0.000;0.000;2023-02-28T08:50:02;8.10;92.10
56869;DHT22;42754;0.000;0.000;2023-02-28T08:52:28;7.90;92.60
56869;DHT22;42754;0.000;0.000;2023-02-28T08:54:54;8.20;91.80
56869;DHT22;42754;0.000;0.000;2023-02-28T08:57:19;8.50;92.10
56869;DHT22;42754;0.000;0.000;2023-02-28T08:59:45;8.40;91.40
56869;DHT22;42754;0.000;0.000;2023-02-28T09:02:13;8.70;91.80
56869;DHT22;42754;0.000;0.000;2023-02-28T09:04:40;8.80;90.00
56869;DHT22;42754;0.000;0.000;2023-02-28T09:07:07;9.10;88.00
56869;DHT22;42754;0.000;0.000;2023-02-28T09:09:32;9.20;88.30
56869;DHT22;42754;0.000;0.000;2023-02-28T09:11:58;9.70;84.20
56869;DHT22;42754;0.000;0.000;2023-02-28T09:14:23;9.50;85.70
56869;DHT22;42754;0.000;0.000;2023-02-28T09:16:49;9.50;82.80
56869;DHT22;42754;0.000;0.000;2023-02-28T09:19:14;9.50;81.40
56869;DHT22;42754;0.000;0.000;2023-02-28T09:21:40;9.90;80.10
56869;DHT22;42754;0.000;0.000;2023-02-28T09:24:06;9.50;78.10
56869;DHT22;42754;0.000;0.000;2023-02-28T09:26:32;9.70;78.40
56869;DHT22;42754;0.000;0.000;2023-02-28T09:28:57;9.30;80.60
56869;DHT22;42754;0.000;0.000;2023-02-28T09:31:26;9.20;80.90
56869;DHT22;42754;0.000;0.000;2023-02-28T09:33:53;9.10;78.80
56869;DHT22;42754;0.000;0.000;2023-02-28T09:36:18;9.20;77.60
56869;DHT22;42754;0.000;0.000;2023-02-28T09:38:44;9.60;79.50
56869;DHT22;42754;0.000;0.000;2023-02-28T09:41:15;9.40;78.40
56869;DHT22;42754;0.000;0.000;2023-02-28T09:43:43;9.40;77.00
56869;DHT22;42754;0.000;0.000;2023-02-28T09:48:39;9.00;77.20
56869;DHT22;42754;0.000;0.000;2023-02-28T09:53:36;9.60;76.20
56869;DHT22;42754;0.000;0.000;2023-02-28T09:56:08;9.80;77.40
56869;DHT22;42754;0.000;0.000;2023-02-28T10:03:32;8.80;79.00
56869;DHT22;42754;0.000;0.000;2023-02-28T10:06:19;8.80;76.90
56869;DHT22;42754;0.000;0.000;2023-02-28T10:11:12;9.60;77.90
56869;DHT22;42754;0.000;0.000;2023-02-28T10:16:21;9.20;76.60
56869;DHT22;42754;0.000;0.000;2023-02-28T10:19:30;9.10;78.00
56869;DHT22;42754;0.000;0.000;2023-02-28T10:21:38;9.50;75.00
56869;DHT22;42754;0.000;0.000;2023-02-28T10:26:48;9.30;77.00
56869;DHT22;42754;0.000;0.000;2023-02-28T10:29:18;9.00;76.00
56869;DHT22;42754;0.000;0.000;2023-02-28T10:31:43;9.20;74.90
56869;DHT22;42754;0.000;0.000;2023-02-28T10:34:11;9.60;74.50
56869;DHT22;42754;0.000;0.000;2023-02-28T10:36:37;9.40;73.80
56869;DHT22;42754;0.000;0.000;2023-02-28T10:39:33;9.30;76.60
56869;DHT22;42754;0.000;0.000;2023-02-28T10:41:51;9.40;75.60
56869;DHT22;42754;0.000;0.000;2023-02-28T10:44:20;9.40;76.10
56869;DHT22;42754;0.000;0.000;2023-02-28T10:46:46;9.60;74.30
56869;DHT22;42754;0.000;0.000;2023-02-28T10:49:13;9.50;75.10
56869;DHT22;42754;0.000;0.000;2023-02-28T10:51:39;9.20;76.20
56869;DHT22;42754;0.000;0.000;2023-02-28T10:54:05;8.90;76.10
56869;DHT22;42754;0.000;0.000;2023-02-28T10:56:39;9.20;76.00
56869;DHT22;42754;0.000;0.000;2023-02-28T11:01:40;9.60;75.90
56869;DHT22;42754;0.000;0.000;2023-02-28T11:07:10;9.60;76.00
56869;DHT22;42754;0.000;0.000;2023-02-28T11:09:41;9.30;76.30
56869;DHT22;42754;0.000;0.000;2023-02-28T11:12:26;9.40;75.90
56869;DHT22;42754;0.000;0.000;2023-02-28T11:15:04;9.70;75.50
56869;DHT22;42754;0.000;0.000;2023-02-28T11:17:31;9.60;77.10
56869;DHT22;42754;0.000;0.000;2023-02-28T11:20:04;9.10;76.00
56869;DHT22;42754;0.000;0.000;2023-02-28T11:22:33;9.50;76.50
56869;DHT22;42754;0.000;0.000;2023-02-28T11:25:02;9.60;75.90
56869;DHT22;42754;0.000;0.000;2023-02-28T11:29:58;9.80;76.00
56869;DHT22;42754;0.000;0.000;2023-02-28T11:32:28;10.10;77.00
56869;DHT22;42754;0.000;0.000;2023-02-28T11:37:26;9.50;77.10
56869;DHT22;42754;0.000;0.000;2023-02-28T11:39:52;9.40;75.40
56869;DHT22;42754;0.000;0.000;2023-02-28T11:45:02;9.50;75.10
56869;DHT22;42754;0.000;0.000;2023-02-28T11:55:11;10.00;75.10
56869;DHT22;42754;0.000;0.000;2023-02-28T12:00:19;9.80;73.70
56869;DHT22;42754;0.000;0.000;2023-02-28T12:10:29;9.80;74.00
56869;DHT22;42754;0.000;0.000;2023-02-28T12:20:27;10.20;73.00
56869;DHT22;42754;0.000;0.000;2023-02-28T12:23:10;10.00;74.30
56869;DHT22;42754;0.000;0.000;2023-02-28T12:28:12;9.90;74.10
56869;DHT22;42754;0.000;0.000;2023-02-28T12:30:38;9.70;73.20
56869;DHT22;42754;0.000;0.000;2023-02-28T12:33:11;9.90;72.10
56869;DHT22;42754;0.000;0.000;2023-02-28T12:35:41;9.70;72.80
56869;DHT22;42754;0.000;0.000;2023-02-28T12:40:45;9.60;73.40
56869;DHT22;42754;0.000;0.000;2023-02-28T12:43:13;9.90;74.40
56869;DHT22;42754;0.000;0.000;2023-02-28T12:45:55;10.30;74.20
56869;DHT22;42754;0.000;0.000;2023-02-28T12:48:39;10.00;73.50
56869;DHT22;42754;0.000;0.000;2023-02-28T12:51:07;9.90;71.70
56869;DHT22;42754;0.000;0.000;2023-02-28T12:58:34;9.90;72.30
56869;DHT22;42754;0.000;0.000;2023-02-28T13:09:22;8.90;72.30
56869;DHT22;42754;0.000;0.000;2023-02-28T13:11:48;9.10;73.70
56869;DHT22;42754;0.000;0.000;2023-02-28T13:14:18;9.40;73.80
56869;DHT22;42754;0.000;0.000;2023-02-28T13:19:55;9.10;72.40
56869;DHT22;42754;0.000;0.000;2023-02-28T13:22:37;9.10;74.00
56869;DHT22;42754;0.000;0.000;2023-02-28T13:25:50;9.10;73.60
56869;DHT22;42754;0.000;0.000;2023-02-28T13:27:53;9.40;75.80
56869;DHT22;42754;0.000;0.000;2023-02-28T13:36:22;8.90;72.90
56869;DHT22;42754;0.000;0.000;2023-02-28T13:38:37;9.30;74.50
56869;DHT22;42754;0.000;0.000;2023-02-28T13:46:24;9.20;73.70
56869;DHT22;42754;0.000;0.000;2023-02-28T13:48:50;9.40;73.20
56869;DHT22;42754;0.000;0.000;2023-02-28T13:51:35;9.20;74.00
56869;DHT22;42754;0.000;0.000;2023-02-28T13:54:24;9.00;72.60
56869;DHT22;42754;0.000;0.000;2023-02-28T13:59:26;9.10;73.60
56869;DHT22;42754;0.000;0.000;2023-02-28T14:02:13;8.80;73.60
56869;DHT22;42754;0.000;0.000;2023-02-28T14:07:20;9.20;73.70
56869;DHT22;42754;0.000;0.000;2023-02-28T14:09:48;8.80;73.00
56869;DHT22;42754;0.000;0.000;2023-02-28T14:15:00;8.90;73.20
56869;DHT22;42754;0.000;0.000;2023-02-28T14:17:26;9.20;74.60
56869;DHT22;42754;0.000;0.000;2023-02-28T14:19:52;9.40;73.10
56869;DHT22;42754;0.000;0.000;2023-02-28T14:32:47;9.50;73.50
56869;DHT22;42754;0.000;0.000;2023-02-28T14:35:35;9.30;72.50
56869;DHT22;42754;0.000;0.000;2023-02-28T14:38:05;9.20;72.70
56869;DHT22;42754;0.000;0.000;2023-02-28T14:40:33;9.40;73.00
56869;DHT22;42754;0.000;0.000;2023-02-28T14:43:00;9.20;71.80
56869;DHT22;42754;0.000;0.000;2023-02-28T14:45:27;9.30;74.20
56869;DHT22;42754;0.000;0.000;2023-02-28T14:47:54;9.40;72.70
56869;DHT22;42754;0.000;0.000;2023-02-28T14:50:20;9.30;73.20
56869;DHT22;42754;0.000;0.000;2023-02-28T14:52:47;9.00;72.90
56869;DHT22;42754;0.000;0.000;2023-02-28T14:55:15;8.90;72.60
56869;DHT22;42754;0.000;0.000;2023-02-28T14:57:50;8.90;73.50
56869;DHT22;42754;0.000;0.000;2023-02-28T15:00:20;8.80;73.10
56869;DHT22;42754;0.000;0.000;2023-02-28T15:02:46;8.70;73.20
56869;DHT22;42754;0.000;0.000;2023-02-28T15:07:44;8.30;73.20
56869;DHT22;42754;0.000;0.000;2023-02-28T15:13:06;8.20;73.10
56869;DHT22;42754;0.000;0.000;2023-02-28T15:15:50;8.20;74.80
56869;DHT22;42754;0.000;0.000;2023-02-28T15:20:42;7.90;74.30
56869;DHT22;42754;0.000;0.000;2023-02-28T15:23:08;7.90;74.40
56869;DHT22;42754;0.000;0.000;2023-02-28T15:25:35;7.80;75.10
56869;DHT22;42754;0.000;0.000;2023-02-28T15:28:00;7.80;75.10
56869;DHT22;42754;0.000;0.000;2023-02-28T15:30:27;7.80;74.70
56869;DHT22;42754;0.000;0.000;2023-02-28T15:33:06;7.70;74.60
56869;DHT22;42754;0.000;0.000;2023-02-28T15:35:33;7.60;74.90
56869;DHT22;42754;0.000;0.000;2023-02-28T15:41:03;7.50;75.90
56869;DHT22;42754;0.000;0.000;2023-02-28T15:43:34;7.30;76.60
56869;DHT22;42754;0.000;0.000;2023-02-28T15:46:13;7.30;76.90
56869;DHT22;42754;0.000;0.000;2023-02-28T15:48:51;7.20;77.40
56869;DHT22;42754;0.000;0.000;2023-02-28T15:53:56;7.10;77.60
56869;DHT22;42754;0.000;0.000;2023-02-28T15:56:27;7.10;78.20
56869;DHT22;42754;0.000;0.000;2023-02-28T15:58:54;7.20;77.80
56869;DHT22;42754;0.000;0.000;2023-02-28T16:01:30;7.10;77.10
56869;DHT22;42754;0.000;0.000;2023-02-28T16:03:59;7.00;77.20
56869;DHT22;42754;0.000;0.000;2023-02-28T16:08:51;7.00;78.80
56869;DHT22;42754;0.000;0.000;2023-02-28T16:11:20;6.90;77.80
56869;DHT22;42754;0.000;0.000;2023-02-28T16:13:45;6.80;78.50
56869;DHT22;42754;0.000;0.000;2023-02-28T16:16:15;6.80;79.20
56869;DHT22;42754;0.000;0.000;2023-02-28T16:18:40;6.80;79.00
56869;DHT22;42754;0.000;0.000;2023-02-28T16:21:06;6.70;79.60
56869;DHT22;42754;0.000;0.000;2023-02-28T16:23:31;6.70;78.90
56869;DHT22;42754;0.000;0.000;2023-02-28T16:25:57;6.60;79.80
56869;DHT22;42754;0.000;0.000;2023-02-28T16:28:24;6.60;79.60
56869;DHT22;42754;0.000;0.000;2023-02-28T16:30:53;6.60;78.80
56869;DHT22;42754;0.000;0.000;2023-02-28T16:33:19;6.60;79.10
56869;DHT22;42754;0.000;0.000;2023-02-28T16:35:44;6.50;79.40
56869;DHT22;42754;0.000;0.000;2023-02-28T16:38:10;6.50;79.90
56869;DHT22;42754;0.000;0.000;2023-02-28T16:40:35;6.50;80.60
56869;DHT22;42754;0.000;0.000;2023-02-28T16:43:04;6.50;80.80
56869;DHT22;42754;0.000;0.000;2023-02-28T16:45:30;6.40;81.50
56869;DHT22;42754;0.000;0.000;2023-02-28T16:47:56;6.40;81.40
56869;DHT22;42754;0.000;0.000;2023-02-28T16:50:23;6.30;80.90
56869;DHT22;42754;0.000;0.000;2023-02-28T16:52:49;6.30;81.70
56869;DHT22;42754;0.000;0.000;2023-02-28T16:55:17;6.30;82.50
56869;DHT22;42754;0.000;0.000;2023-02-28T16:57:43;6.20;82.80
56869;DHT22;42754;0.000;0.000;2023-02-28T17:00:11;6.20;83.20
56869;DHT22;42754;0.000;0.000;2023-02-28T17:02:37;6.10;82.80
56869;DHT22;42754;0.000;0.000;2023-02-28T17:05:03;6.10;83.40
56869;DHT22;42754;0.000;0.000;2023-02-28T17:07:29;6.00;83.30
56869;DHT22;42754;0.000;0.000;2023-02-28T17:09:54;5.90;84.00
56869;DHT22;42754;0.000;0.000;2023-02-28T17:12:20;5.90;84.10
56869;DHT22;42754;0.000;0.000;2023-02-28T17:14:45;5.90;84.10
56869;DHT22;42754;0.000;0.000;2023-02-28T17:17:17;5.80;84.30
56869;DHT22;42754;0.000;0.000;2023-02-28T17:19:43;5.70;84.20
56869;DHT22;42754;0.000;0.000;2023-02-28T17:22:09;5.70;84.60
56869;DHT22;42754;0.000;0.000;2023-02-28T17:24:35;5.70;84.20
56869;DHT22;42754;0.000;0.000;2023-02-28T17:27:00;5.60;84.50
56869;DHT22;42754;0.000;0.000;2023-02-28T17:29:26;5.50;84.40
56869;DHT22;42754;0.000;0.000;2023-02-28T17:31:52;5.50;84.80
56869;DHT22;42754;0.000;0.000;2023-02-28T17:34:17;5.40;85.10
56869;DHT22;42754;0.000;0.000;2023-02-28T17:36:45;5.40;85.10
56869;DHT22;42754;0.000;0.000;2023-02-28T17:39:12;5.40;85.10
56869;DHT22;42754;0.000;0.000;2023-02-28T17:41:42;5.40;85.20
56869;DHT22;42754;0.000;0.000;2023-02-28T17:44:08;5.30;85.50
56869;DHT22;42754;0.000;0.000;2023-02-28T17:46:35;5.30;85.80
56869;DHT22;42754;0.000;0.000;2023-02-28T17:49:00;5.30;85.60
56869;DHT22;42754;0.000;0.000;2023-02-28T17:51:27;5.30;85.80
56869;DHT22;42754;0.000;0.000;2023-02-28T17:53:53;5.20;86.60
56869;DHT22;42754;0.000;0.000;2023-02-28T17:56:20;5.20;86.70
56869;DHT22;42754;0.000;0.000;2023-02-28T17:58:46;5.10;86.30
56869;DHT22;42754;0.000;0.000;2023-02-28T18:01:12;5.00;86.30
56869;DHT22;42754;0.000;0.000;2023-02-28T18:03:38;5.00;86.00
56869;DHT22;42754;0.000;0.000;2023-02-28T18:06:04;4.90;86.30
56869;DHT22;42754;0.000;0.000;2023-02-28T18:08:29;4.90;86.70
56869;DHT22;42754;0.000;0.000;2023-02-28T18:10:56;4.90;86.90
56869;DHT22;42754;0.000;0.000;2023-02-28T18:13:22;4.90;87.70
56869;DHT22;42754;0.000;0.000;2023-02-28T18:15:47;4.90;87.90
56869;DHT22;42754;0.000;0.000;2023-02-28T18:18:13;4.90;88.50
56869;DHT22;42754;0.000;0.000;2023-02-28T18:20:40;4.90;90.30
56869;DHT22;42754;0.000;0.000;2023-02-28T18:23:06;4.80;90.40
56869;DHT22;42754;0.000;0.000;2023-02-28T18:25:32;4.70;91.30
56869;DHT22;42754;0.000;0.000;2023-02-28T18:27:58;4.60;91.30
56869;DHT22;42754;0.000;0.000;2023-02-28T18:30:25;4.50;91.70
56869;DHT22;42754;0.000;0.000;2023-02-28T18:32:51;4.50;91.70
56869;DHT22;42754;0.000;0.000;2023-02-28T18:35:17;4.40;92.00